createdAt,value
2023-05-08T00:03:59.648Z,13.60
2023-05-08T00:09:01.690Z,13.60
2023-05-08T00:14:05.385Z,13.60
2023-05-08T00:19:08.754Z,13.60
2023-05-08T00:24:10.970Z,13.60
2023-05-08T00:29:14.198Z,13.60
2023-05-08T00:34:16.183Z,13.60
2023-05-08T00:39:18.082Z,13.60
2023-05-08T00:44:21.790Z,13.60
2023-05-08T00:49:24.645Z,13.60
2023-05-08T00:54:28.486Z,13.60
2023-05-08T00:59:32.434Z,13.50
2023-05-08T01:04:36.218Z,13.50
2023-05-08T01:09:38.550Z,13.50
2023-05-08T01:15:00.803Z,13.50
2023-05-08T01:20:15.342Z,13.50
2023-05-08T01:26:02.265Z,13.50
2023-05-08T01:31:18.651Z,13.50
2023-05-08T01:36:27.424Z,13.50
2023-05-08T01:41:32.818Z,13.50
2023-05-08T01:46:35.611Z,13.50
2023-05-08T01:51:46.538Z,13.40
2023-05-08T01:56:50.122Z,13.40
2023-05-08T02:01:57.065Z,13.50
2023-05-08T02:07:01.907Z,13.60
2023-05-08T02:12:04.839Z,13.60
2023-05-08T02:17:09.401Z,13.60
2023-05-08T02:22:13.318Z,13.70
2023-05-08T02:27:17.280Z,13.60
2023-05-08T02:32:21.431Z,13.50
2023-05-08T02:37:26.834Z,13.50
2023-05-08T02:42:29.095Z,13.50
2023-05-08T02:47:40.874Z,13.50
2023-05-08T02:52:49.233Z,13.50
2023-05-08T02:58:05.051Z,13.50
2023-05-08T03:03:13.256Z,13.50
2023-05-08T03:08:20.909Z,13.50
2023-05-08T03:13:23.368Z,13.50
2023-05-08T03:18:32.266Z,13.40
2023-05-08T03:23:38.395Z,13.40
2023-05-08T03:28:41.446Z,13.40
2023-05-08T03:33:44.438Z,13.30
2023-05-08T03:38:48.457Z,13.30
2023-05-08T03:43:51.457Z,13.30
2023-05-08T03:48:54.496Z,13.30
2023-05-08T03:53:57.851Z,13.30
2023-05-08T03:59:11.645Z,13.20
2023-05-08T04:04:19.242Z,13.20
2023-05-08T04:09:29.280Z,13.20
2023-05-08T04:14:36.587Z,13.20
2023-05-08T04:19:44.077Z,13.30
2023-05-08T04:24:49.680Z,13.30
2023-05-08T04:29:52.322Z,13.30
2023-05-08T04:34:55.446Z,13.30
2023-05-08T04:39:59.267Z,13.20
2023-05-08T04:45:01.216Z,13.10
2023-05-08T04:50:03.494Z,13.20
2023-05-08T04:55:08.385Z,13.20
2023-05-08T05:00:11.811Z,13.20
2023-05-08T05:05:14.236Z,13.20
2023-05-08T05:10:18.098Z,13.30
2023-05-08T05:15:20.283Z,13.40
2023-05-08T05:20:22.154Z,13.40
2023-05-08T05:25:25.460Z,13.40
2023-05-08T05:30:28.216Z,13.40
2023-05-08T05:35:30.212Z,13.50
2023-05-08T05:40:33.863Z,13.50
2023-05-08T05:45:36.429Z,13.60
2023-05-08T05:50:39.193Z,13.60
2023-05-08T05:55:42.826Z,13.60
2023-05-08T06:00:45.467Z,13.60
2023-05-08T06:05:48.710Z,13.60
2023-05-08T06:10:52.194Z,13.70
2023-05-08T06:15:57.321Z,13.70
2023-05-08T06:20:59.842Z,13.70
2023-05-08T06:26:04.019Z,13.70
2023-05-08T06:31:06.636Z,13.70
2023-05-08T06:36:09.617Z,13.80
2023-05-08T06:41:15.189Z,13.80
2023-05-08T06:46:17.518Z,13.90
2023-05-08T06:51:23.262Z,13.90
2023-05-08T06:56:26.835Z,13.70
2023-05-08T07:01:29.142Z,13.80
2023-05-08T07:06:32.189Z,13.90
2023-05-08T07:11:35.966Z,13.80
2023-05-08T07:16:38.325Z,13.80
2023-05-08T07:21:40.588Z,13.80
2023-05-08T07:26:44.464Z,13.90
2023-05-08T07:31:47.122Z,14.00
2023-05-08T07:36:49.751Z,14.20
2023-05-08T07:41:53.963Z,14.40
2023-05-08T07:46:55.936Z,14.40
2023-05-08T07:51:58.061Z,14.70
2023-05-08T07:57:01.716Z,14.70
2023-05-08T08:02:03.926Z,14.80
2023-05-08T08:07:05.776Z,14.70
2023-05-08T08:12:09.474Z,14.90
2023-05-08T08:17:11.729Z,15.00
2023-05-08T08:22:13.873Z,15.00
2023-05-08T08:27:17.259Z,15.10
2023-05-08T08:32:19.467Z,15.10
2023-05-08T08:37:21.317Z,15.20
2023-05-08T08:42:25.126Z,15.20
2023-05-08T08:47:37.789Z,15.20
2023-05-08T08:52:44.695Z,15.20
2023-05-08T08:57:56.739Z,15.30
2023-05-08T09:02:59.170Z,15.40
2023-05-08T09:08:02.439Z,15.60
2023-05-08T09:13:06.633Z,15.70
2023-05-08T09:18:08.833Z,15.80
2023-05-08T09:23:12.048Z,15.80
2023-05-08T09:28:19.481Z,15.80
2023-05-08T09:33:23.014Z,15.70
2023-05-08T09:38:36.688Z,15.70
2023-05-08T09:43:40.744Z,15.60
2023-05-08T09:48:42.572Z,15.40
2023-05-08T09:53:44.870Z,15.30
2023-05-08T09:58:48.096Z,15.50
2023-05-08T10:03:51.664Z,15.70
2023-05-08T10:09:08.484Z,15.80
2023-05-08T10:14:12.052Z,16.00
2023-05-08T10:19:16.222Z,16.00
2023-05-08T10:24:20.278Z,16.10
2023-05-08T10:29:33.400Z,16.20
2023-05-08T10:34:36.515Z,16.30
2023-05-08T10:39:40.027Z,16.50
2023-05-08T10:44:43.559Z,16.70
2023-05-08T10:49:53.147Z,17.00
2023-05-08T10:55:24.297Z,17.50
2023-05-08T11:00:27.455Z,17.90
2023-05-08T11:05:29.225Z,18.40
2023-05-08T11:10:32.708Z,18.90
2023-05-08T11:15:40.977Z,19.30
2023-05-08T11:20:45.086Z,19.70
2023-05-08T11:25:47.086Z,20.10
2023-05-08T11:30:55.429Z,20.60
2023-05-08T11:35:58.730Z,21.20
2023-05-08T11:41:03.233Z,21.30
2023-05-08T11:46:08.705Z,21.60
2023-05-08T11:51:11.372Z,22.50
2023-05-08T11:56:13.212Z,23.00
2023-05-08T12:01:22.203Z,23.20
2023-05-08T12:06:24.196Z,23.60
2023-05-08T12:11:26.720Z,24.40
2023-05-08T12:16:29.944Z,25.00
2023-05-08T12:21:32.616Z,26.80
2023-05-08T12:26:37.412Z,27.10
2023-05-08T12:31:41.112Z,24.60
2023-05-08T12:36:43.518Z,24.50
2023-05-08T12:41:49.933Z,24.10
2023-05-08T12:46:54.596Z,23.20
2023-05-08T12:52:06.761Z,22.90
2023-05-08T12:57:12.831Z,22.50
2023-05-08T13:02:18.785Z,23.20
2023-05-08T13:07:21.100Z,23.70
2023-05-08T13:12:23.093Z,23.80
2023-05-08T13:17:26.584Z,23.90
2023-05-08T13:22:29.185Z,22.90
2023-05-08T13:27:31.261Z,22.80
2023-05-08T13:32:35.717Z,21.20
2023-05-08T13:37:37.885Z,22.50
2023-05-08T13:42:39.948Z,22.20
2023-05-08T13:47:43.717Z,23.00
2023-05-08T13:52:45.984Z,22.70
2023-05-08T13:57:47.760Z,23.00
2023-05-08T14:02:53.165Z,23.30
2023-05-08T14:07:55.860Z,23.80
2023-05-08T14:12:58.707Z,24.90
2023-05-08T14:18:02.317Z,24.20
2023-05-08T14:23:04.514Z,22.20
2023-05-08T14:28:06.852Z,21.90
2023-05-08T14:33:11.353Z,21.60
2023-05-08T14:38:13.702Z,21.70
2023-05-08T14:43:15.606Z,21.80
2023-05-08T14:48:19.190Z,21.40
2023-05-08T14:53:21.963Z,21.10
2023-05-08T14:58:24.463Z,20.80
2023-05-08T15:03:28.209Z,20.40
2023-05-08T15:08:31.173Z,20.20
2023-05-08T15:13:33.587Z,20.30
2023-05-08T15:18:40.585Z,20.60
2023-05-08T15:23:43.026Z,21.40
2023-05-08T15:28:45.047Z,21.90
2023-05-08T15:33:48.543Z,21.20
2023-05-08T15:38:50.395Z,20.60
2023-05-08T15:43:52.126Z,20.00
2023-05-08T15:48:58.057Z,19.80
2023-05-08T15:54:00.982Z,19.80
2023-05-08T15:59:02.854Z,19.60
2023-05-08T16:04:06.951Z,19.40
2023-05-08T16:09:09.370Z,19.30
2023-05-08T16:14:11.831Z,19.10
2023-05-08T16:19:16.129Z,18.80
2023-05-08T16:24:18.179Z,18.60
2023-05-08T16:29:20.153Z,18.30
2023-05-08T16:34:23.761Z,18.20
2023-05-08T16:39:25.941Z,18.20
2023-05-08T16:44:27.989Z,18.30
2023-05-08T16:49:31.445Z,18.30
2023-05-08T16:54:33.668Z,18.20
2023-05-08T16:59:35.876Z,18.20
2023-05-08T17:04:39.731Z,18.00
2023-05-08T17:09:42.347Z,17.90
2023-05-08T17:14:45.141Z,17.60
2023-05-08T17:19:52.134Z,17.50
2023-05-08T17:24:55.008Z,17.40
2023-05-08T17:29:57.735Z,17.20
2023-05-08T17:35:02.501Z,17.10
2023-05-08T17:40:05.821Z,17.10
2023-05-08T17:45:11.011Z,17.10
2023-05-08T17:50:15.325Z,17.20
2023-05-08T17:55:18.220Z,17.10
2023-05-08T18:00:21.659Z,17.10
2023-05-08T18:05:25.738Z,17.00
2023-05-08T18:10:28.554Z,16.90
2023-05-08T18:15:31.942Z,16.90
2023-05-08T18:20:36.399Z,16.80
2023-05-08T18:25:39.008Z,16.80
2023-05-08T18:30:44.640Z,16.70
2023-05-08T18:35:51.234Z,16.60
2023-05-08T18:40:55.124Z,16.50
2023-05-08T18:45:58.524Z,16.40
2023-05-08T18:51:03.119Z,16.20
2023-05-08T18:56:06.967Z,16.00
2023-05-08T19:01:10.200Z,16.00
2023-05-08T19:06:15.613Z,16.00
2023-05-08T19:11:18.487Z,15.90
2023-05-08T19:16:21.362Z,15.90
2023-05-08T19:21:25.974Z,15.80
2023-05-08T19:26:28.913Z,15.60
2023-05-08T19:31:31.901Z,15.60
2023-05-08T19:36:38.798Z,15.40
2023-05-08T19:41:41.946Z,15.40
2023-05-08T19:46:44.750Z,15.40
2023-05-08T19:51:50.158Z,15.30
2023-05-08T19:56:53.036Z,15.40
2023-05-08T20:01:55.712Z,15.30
2023-05-08T20:07:00.239Z,15.30
2023-05-08T20:12:03.059Z,15.30
2023-05-08T20:17:05.986Z,15.30
2023-05-08T20:22:11.618Z,15.30
2023-05-08T20:27:13.590Z,15.30
2023-05-08T20:32:16.712Z,15.30
2023-05-08T20:37:20.345Z,15.30
2023-05-08T20:42:24.564Z,15.30
2023-05-08T20:47:26.501Z,15.20
2023-05-08T20:52:32.709Z,15.10
2023-05-08T20:57:35.485Z,15.10
2023-05-08T21:02:40.538Z,15.10
2023-05-08T21:07:44.410Z,15.00
2023-05-08T21:12:46.710Z,15.00
2023-05-08T21:17:50.574Z,15.00
2023-05-08T21:22:54.137Z,14.80
2023-05-08T21:27:58.174Z,14.80
2023-05-08T21:33:00.233Z,14.70
2023-05-08T21:38:03.785Z,14.80
2023-05-08T21:43:05.622Z,14.70
2023-05-08T21:48:08.968Z,14.70
2023-05-08T21:53:13.121Z,14.60
2023-05-08T21:58:15.648Z,14.60
2023-05-08T22:03:18.255Z,14.60
2023-05-08T22:08:58.800Z,14.60
2023-05-08T22:14:15.381Z,14.50
